Buckley Air Force Base
KBKF : now visible

Airfield :











YOU CAN JOIN US ON...

 
LOGIN :

Register | Disclaimer

   EN    FR    IT 

 









Legend :    VFR   Marginal VFR   IFR   Intensive IFR   Very Intensive IFR
Visi :
Ceiling :
>= 8 km
>= 3000ft
5 to 8 km
1000 to 3000 ft
1500m to 5 km
500 to 1000 ft
800 to 1500m
200 to 500 ft
< 800m
< 200 ft
Symbols :   Thunderstorms  Fog  Heavy snow  Heavy precipitations  Wind > 20 kt






- Airport Elevation : 5662 ft


KBKF - Buckley Air Force Base

METAR N/A
TAF TAF KBKF
Valid from the 20 at 17:00 until the 21 at 23:00 UTC


201700Z 2017/2123 03009KT 9999 FEW080 FEW140 QNH2995INS
BECMG 2020/2021 06012G20KT 9999 SCT080 BKN100 510005 QNH2994INS
BECMG 2100/2101 05018G25KT 9000 -SHRA VCTS BKN050CB 520009 QNH2996INS
TEMPO 2102/2104 4000 TSRA BKN040CB 530009
BECMG 2105/2106 04015G20KT 9000 -SHRA OVC010 510009 QNH3021INS
BECMG 2109/2110 VRB06KT 9000 -SHRA OVC008 QNH3025INS
BECMG 2118/2119 09009KT 9999 NSW BKN020 QNH3018INS TX29/2021Z TN11/2111Z
KZDV FIR / North America



MET'MAP, your aeronautical weather chart ! - Copyright ORBIFLY December 2007 - Disclaimer

ORBIFLY MET'MAP TEAM :

Programming & Development : Alexandra Zaïnal
Concept & original design : Baudouin d'Aumeries
Assistance for programming : Marc-Olivier Méhu
Technical & hardware support : Manuel Goepfert

Contact : metmap@orbifly.com




SOURCES & CREDITS :

   NOAA       Earth
Advisory